createdAt,value
2018-05-07T00:00:51.265Z,11.40
2018-05-07T00:03:19.549Z,11.30
2018-05-07T00:05:47.834Z,11.30
2018-05-07T00:08:16.138Z,11.30
2018-05-07T00:10:43.674Z,11.30
2018-05-07T00:13:11.225Z,11.30
2018-05-07T00:15:38.752Z,11.30
2018-05-07T00:18:06.260Z,11.30
2018-05-07T00:20:33.832Z,11.30
2018-05-07T00:23:01.388Z,11.40
2018-05-07T00:25:28.931Z,11.40
2018-05-07T00:27:56.441Z,11.40
2018-05-07T00:30:23.981Z,11.40
2018-05-07T00:32:51.519Z,11.40
2018-05-07T00:35:19.050Z,11.30
2018-05-07T00:37:47.345Z,11.20
2018-05-07T00:40:14.865Z,11.10
2018-05-07T00:42:42.374Z,11.10
2018-05-07T00:45:09.942Z,11.00
2018-05-07T00:47:37.454Z,11.10
2018-05-07T00:50:05.748Z,11.10
2018-05-07T00:52:33.268Z,11.00
2018-05-07T00:55:12.585Z,11.10
2018-05-07T00:57:40.092Z,11.10
2018-05-07T01:00:08.382Z,11.00
2018-05-07T01:02:35.927Z,11.00
2018-05-07T01:05:03.475Z,10.90
2018-05-07T01:07:31.786Z,10.90
2018-05-07T01:09:59.297Z,10.80
2018-05-07T01:12:26.822Z,10.80
2018-05-07T01:14:54.366Z,10.80
2018-05-07T01:17:21.891Z,10.70
2018-05-07T01:19:50.197Z,10.50
2018-05-07T01:22:17.734Z,10.40
2018-05-07T01:24:45.239Z,10.30
2018-05-07T01:27:12.797Z,10.20
2018-05-07T01:29:40.326Z,10.20
2018-05-07T01:32:07.864Z,10.10
2018-05-07T01:34:35.398Z,10.20
2018-05-07T01:37:03.707Z,10.20
2018-05-07T01:39:31.995Z,10.10
2018-05-07T01:41:59.519Z,10.10
2018-05-07T01:44:27.054Z,10.10
2018-05-07T01:46:54.573Z,10.00
2018-05-07T01:49:22.086Z,9.90
2018-05-07T01:51:49.609Z,9.70
2018-05-07T01:54:17.123Z,9.70
2018-05-07T01:56:45.412Z,9.60
2018-05-07T01:59:13.701Z,9.50
2018-05-07T02:01:41.235Z,9.50
2018-05-07T02:04:09.520Z,9.50
2018-05-07T02:06:37.823Z,9.50
2018-05-07T02:09:05.326Z,9.40
2018-05-07T02:11:32.883Z,9.40
2018-05-07T02:14:00.393Z,9.20
2018-05-07T02:16:27.934Z,9.20
2018-05-07T02:18:56.230Z,9.00
2018-05-07T02:21:23.752Z,8.90
2018-05-07T02:23:52.049Z,8.80
2018-05-07T02:26:19.566Z,8.70
2018-05-07T02:28:47.094Z,8.70
2018-05-07T02:31:14.612Z,8.60
2018-05-07T02:33:42.922Z,8.50
2018-05-07T02:36:10.431Z,8.50
2018-05-07T02:38:37.977Z,8.50
2018-05-07T02:41:05.524Z,8.50
2018-05-07T02:43:33.045Z,8.50
2018-05-07T02:46:00.580Z,8.40
2018-05-07T02:48:28.856Z,8.50
2018-05-07T02:50:57.167Z,8.50
2018-05-07T02:53:24.691Z,8.50
2018-05-07T02:55:53.003Z,8.40
2018-05-07T02:58:20.520Z,8.40
2018-05-07T03:00:48.065Z,8.30
2018-05-07T03:03:15.584Z,8.20
2018-05-07T03:05:43.095Z,8.10
2018-05-07T03:08:11.399Z,8.00
2018-05-07T03:10:38.924Z,8.00
2018-05-07T03:13:06.462Z,8.00
2018-05-07T03:15:33.981Z,8.00
2018-05-07T03:18:01.513Z,8.00
2018-05-07T03:20:29.782Z,8.10
2018-05-07T03:22:58.102Z,8.00
2018-05-07T03:25:25.622Z,8.00
2018-05-07T03:27:53.903Z,7.90
2018-05-07T03:30:22.206Z,7.80
2018-05-07T03:32:49.720Z,7.80
2018-05-07T03:35:17.265Z,7.70
2018-05-07T03:37:44.781Z,7.60
2018-05-07T03:40:12.310Z,7.60
2018-05-07T03:42:40.601Z,7.40
2018-05-07T03:45:08.888Z,7.30
2018-05-07T03:47:36.419Z,7.30
2018-05-07T03:50:03.947Z,7.30
2018-05-07T03:52:31.459Z,7.20
2018-05-07T03:54:59.765Z,7.10
2018-05-07T03:57:27.314Z,7.10
2018-05-07T03:59:54.820Z,7.00
2018-05-07T04:02:22.353Z,7.00
2018-05-07T04:04:49.847Z,7.00
2018-05-07T04:07:17.396Z,7.10
2018-05-07T04:09:44.880Z,7.10
2018-05-07T04:12:13.176Z,7.20
2018-05-07T04:14:40.713Z,7.20
2018-05-07T04:17:20.774Z,7.30
2018-05-07T04:20:00.773Z,7.30
2018-05-07T04:22:40.253Z,7.30
2018-05-07T04:25:08.520Z,7.30
2018-05-07T04:27:36.028Z,7.30
2018-05-07T04:30:03.561Z,7.30
2018-05-07T04:32:31.081Z,7.30
2018-05-07T04:34:58.614Z,7.30
2018-05-07T04:37:26.128Z,7.30
2018-05-07T04:39:53.640Z,7.40
2018-05-07T04:42:21.185Z,7.40
2018-05-07T04:44:48.687Z,7.50
2018-05-07T04:47:16.199Z,7.50
2018-05-07T04:49:43.719Z,7.60
2018-05-07T04:52:12.015Z,7.70
2018-05-07T04:54:39.559Z,7.70
2018-05-07T04:57:07.868Z,7.90
2018-05-07T04:59:35.428Z,7.80
2018-05-07T05:02:02.970Z,8.00
2018-05-07T05:04:30.498Z,8.10
2018-05-07T05:06:58.774Z,8.20
2018-05-07T05:09:27.102Z,8.20
2018-05-07T05:11:54.619Z,8.20
2018-05-07T05:14:22.896Z,8.40
2018-05-07T05:16:51.176Z,8.40
2018-05-07T05:19:18.801Z,8.40
2018-05-07T05:21:47.023Z,8.60
2018-05-07T05:24:14.561Z,8.60
2018-05-07T05:26:42.852Z,8.90
2018-05-07T05:29:10.445Z,8.90
2018-05-07T05:31:37.977Z,9.00
2018-05-07T05:34:05.499Z,9.20
2018-05-07T05:36:33.025Z,9.30
2018-05-07T05:39:00.545Z,9.40
2018-05-07T05:41:28.837Z,9.70
2018-05-07T05:43:56.357Z,9.70
2018-05-07T05:46:23.877Z,9.80
2018-05-07T05:48:51.399Z,9.90
2018-05-07T05:51:19.696Z,10.20
2018-05-07T05:53:47.231Z,10.10
2018-05-07T05:56:15.541Z,10.40
2018-05-07T05:58:43.050Z,10.40
2018-05-07T06:01:10.571Z,10.50
2018-05-07T06:03:38.200Z,10.50
2018-05-07T06:06:05.647Z,10.60
2018-05-07T06:08:33.935Z,10.80
2018-05-07T06:11:01.454Z,10.80
2018-05-07T06:13:28.981Z,10.90
2018-05-07T06:15:56.489Z,11.00
2018-05-07T06:18:24.761Z,11.20
2018-05-07T06:20:53.049Z,11.20
2018-05-07T06:23:21.329Z,11.30
2018-05-07T06:25:48.869Z,11.30
2018-05-07T06:28:17.169Z,11.60
2018-05-07T06:30:45.473Z,11.90
2018-05-07T06:33:12.990Z,11.80
2018-05-07T06:35:41.306Z,12.10
2018-05-07T06:38:08.822Z,12.10
2018-05-07T06:40:37.127Z,12.30
2018-05-07T06:43:04.637Z,12.30
2018-05-07T06:45:32.173Z,12.60
2018-05-07T06:47:59.716Z,12.80
2018-05-07T06:50:27.258Z,13.20
2018-05-07T06:52:54.779Z,13.50
2018-05-07T06:55:22.297Z,13.90
2018-05-07T06:57:49.820Z,14.30
2018-05-07T07:00:18.118Z,14.90
2018-05-07T07:02:45.757Z,14.80
2018-05-07T07:05:13.191Z,15.20
2018-05-07T07:07:40.717Z,15.60
2018-05-07T07:10:08.256Z,15.70
2018-05-07T07:12:35.764Z,15.90
2018-05-07T07:15:03.289Z,16.10
2018-05-07T07:17:30.816Z,16.10
2018-05-07T07:19:59.116Z,16.50
2018-05-07T07:22:26.630Z,16.50
2018-05-07T07:24:54.161Z,16.70
2018-05-07T07:27:21.668Z,16.80
2018-05-07T07:29:49.973Z,16.90
2018-05-07T07:32:17.518Z,16.80
2018-05-07T07:34:45.025Z,16.90
2018-05-07T07:37:12.575Z,16.80
2018-05-07T07:39:40.079Z,16.80
2018-05-07T07:42:08.380Z,16.70
2018-05-07T07:44:35.896Z,16.60
2018-05-07T07:47:04.205Z,16.90
2018-05-07T07:49:31.723Z,16.90
2018-05-07T07:51:59.271Z,17.10
2018-05-07T07:54:26.783Z,17.20
2018-05-07T07:56:54.299Z,17.30
2018-05-07T07:59:21.907Z,17.40
2018-05-07T08:01:49.380Z,17.60
2018-05-07T08:04:16.993Z,17.30
2018-05-07T08:06:44.434Z,17.00
2018-05-07T08:09:11.970Z,17.10
2018-05-07T08:11:39.491Z,17.20
2018-05-07T08:14:07.018Z,17.30
2018-05-07T08:16:35.310Z,17.70
2018-05-07T08:19:02.853Z,17.60
2018-05-07T08:21:30.366Z,17.80
2018-05-07T08:23:57.877Z,17.90
2018-05-07T08:26:26.163Z,18.40
2018-05-07T08:28:54.442Z,18.60
2018-05-07T08:31:22.760Z,18.70
2018-05-07T08:33:50.277Z,18.70
2018-05-07T08:36:18.604Z,18.40
2018-05-07T08:38:46.131Z,18.30
2018-05-07T08:41:13.656Z,18.50
2018-05-07T08:43:41.933Z,18.80
2018-05-07T08:46:10.217Z,19.10
2018-05-07T08:48:38.521Z,19.10
2018-05-07T08:51:06.077Z,19.10
2018-05-07T08:53:33.594Z,19.00
2018-05-07T08:56:01.113Z,19.10
2018-05-07T08:58:28.639Z,19.00
2018-05-07T09:00:56.916Z,19.30
2018-05-07T09:03:27.021Z,19.40
2018-05-07T09:05:54.566Z,19.40
2018-05-07T09:08:22.150Z,19.60
2018-05-07T09:10:50.428Z,19.30
2018-05-07T09:13:19.446Z,19.10
2018-05-07T09:15:47.012Z,19.10
2018-05-07T09:18:14.524Z,19.20
2018-05-07T09:20:42.037Z,19.20
2018-05-07T09:23:09.551Z,19.20
2018-05-07T09:25:37.832Z,19.70
2018-05-07T09:28:06.101Z,19.70
2018-05-07T09:30:34.404Z,19.80
2018-05-07T09:33:01.924Z,19.80
2018-05-07T09:35:29.437Z,19.90
2018-05-07T09:37:56.966Z,19.70
2018-05-07T09:40:25.250Z,19.60
2018-05-07T09:42:52.849Z,19.60
2018-05-07T09:45:20.353Z,19.90
2018-05-07T09:47:48.663Z,20.40
2018-05-07T09:50:16.173Z,20.40
2018-05-07T09:52:43.713Z,20.10
2018-05-07T09:55:11.228Z,20.10
2018-05-07T09:57:38.978Z,20.00
2018-05-07T10:00:07.254Z,20.20
2018-05-07T10:02:35.552Z,20.60
2018-05-07T10:05:03.077Z,20.60
2018-05-07T10:07:31.374Z,21.20
2018-05-07T10:09:58.905Z,21.20
2018-05-07T10:12:27.182Z,21.50
2018-05-07T10:14:55.471Z,21.40
2018-05-07T10:17:23.743Z,21.60
2018-05-07T10:19:52.045Z,21.80
2018-05-07T10:22:19.548Z,21.80
2018-05-07T10:24:47.074Z,22.10
2018-05-07T10:27:14.601Z,22.20
2018-05-07T10:29:42.876Z,22.00
2018-05-07T10:32:11.176Z,22.00
2018-05-07T10:34:38.680Z,22.00
2018-05-07T10:37:06.222Z,21.90
2018-05-07T10:39:33.720Z,22.10
2018-05-07T10:42:02.001Z,22.40
2018-05-07T10:44:30.277Z,22.30
2018-05-07T10:46:58.572Z,22.20
2018-05-07T10:49:26.072Z,22.20
2018-05-07T10:51:53.617Z,22.40
2018-05-07T10:54:21.132Z,22.50
2018-05-07T10:56:49.399Z,22.30
2018-05-07T10:59:17.723Z,22.30
2018-05-07T11:01:45.235Z,22.40
2018-05-07T11:04:13.551Z,22.40
2018-05-07T11:06:41.053Z,22.40
2018-05-07T11:09:08.590Z,22.50
2018-05-07T11:11:36.100Z,22.30
2018-05-07T11:14:03.613Z,22.30
2018-05-07T11:16:31.128Z,22.40
2018-05-07T11:18:58.731Z,22.40
2018-05-07T11:21:26.205Z,22.60
2018-05-07T11:23:53.707Z,22.70
2018-05-07T11:26:21.238Z,22.80
2018-05-07T11:28:49.506Z,22.90
2018-05-07T11:31:17.020Z,22.90
2018-05-07T11:33:44.520Z,22.70
2018-05-07T11:36:12.043Z,22.80
2018-05-07T11:38:39.555Z,23.00
2018-05-07T11:41:07.825Z,23.20
2018-05-07T11:43:36.126Z,23.30
2018-05-07T11:46:03.642Z,23.30
2018-05-07T11:48:31.176Z,23.00
2018-05-07T11:50:58.690Z,22.80
2018-05-07T11:53:26.247Z,22.80
2018-05-07T11:55:54.519Z,22.80
2018-05-07T11:58:22.805Z,22.90
2018-05-07T12:00:50.312Z,22.80
2018-05-07T12:03:17.821Z,23.10
2018-05-07T12:05:46.100Z,23.30
2018-05-07T12:08:13.608Z,23.30
2018-05-07T12:10:41.145Z,23.50
2018-05-07T12:13:08.656Z,23.70
2018-05-07T12:15:36.944Z,23.80
2018-05-07T12:18:05.325Z,23.80
2018-05-07T12:20:33.619Z,23.90
2018-05-07T12:23:01.134Z,23.90
2018-05-07T12:25:28.658Z,23.90
2018-05-07T12:27:56.236Z,24.00
2018-05-07T12:30:23.747Z,24.00
2018-05-07T12:32:51.289Z,24.10
2018-05-07T12:35:19.569Z,24.30
2018-05-07T12:37:47.874Z,24.40
2018-05-07T12:40:15.386Z,24.30
2018-05-07T12:42:42.911Z,24.50
2018-05-07T12:45:10.425Z,24.30
2018-05-07T12:47:38.707Z,24.00
2018-05-07T12:50:06.973Z,24.30
2018-05-07T12:52:35.240Z,24.30
2018-05-07T12:55:03.538Z,24.10
2018-05-07T12:57:31.065Z,24.10
2018-05-07T12:59:59.374Z,24.10
2018-05-07T13:02:26.898Z,24.10
2018-05-07T13:04:54.428Z,24.30
2018-05-07T13:07:21.949Z,24.30
2018-05-07T13:09:50.242Z,24.30
2018-05-07T13:12:17.787Z,24.20
2018-05-07T13:14:45.314Z,24.30
2018-05-07T13:17:12.916Z,24.50
2018-05-07T13:19:40.415Z,23.90
2018-05-07T13:22:07.957Z,23.40
2018-05-07T13:24:35.474Z,23.40
2018-05-07T13:27:03.767Z,23.40
2018-05-07T13:29:31.305Z,23.40
2018-05-07T13:31:59.593Z,23.30
2018-05-07T13:34:27.127Z,23.30
2018-05-07T13:36:55.477Z,23.40
2018-05-07T13:39:22.956Z,23.40
2018-05-07T13:41:50.484Z,23.40
2018-05-07T13:44:17.997Z,23.50
2018-05-07T13:46:46.282Z,23.30
2018-05-07T13:49:13.807Z,23.30
2018-05-07T13:51:41.316Z,23.10
2018-05-07T13:54:08.834Z,23.20
2018-05-07T13:56:36.341Z,23.40
2018-05-07T13:59:03.873Z,23.60
2018-05-07T14:01:31.386Z,23.50
2018-05-07T14:03:58.918Z,23.40
2018-05-07T14:06:26.431Z,23.30
2018-05-07T14:08:54.700Z,23.60
2018-05-07T14:13:56.059Z,23.70
2018-05-07T14:16:23.585Z,23.80
2018-05-07T14:18:51.087Z,23.70
2018-05-07T14:21:19.376Z,23.40
2018-05-07T14:23:47.657Z,23.60
2018-05-07T14:26:16.012Z,23.80
2018-05-07T14:28:43.502Z,23.80
2018-05-07T14:31:11.033Z,23.70
2018-05-07T14:33:39.317Z,23.60
2018-05-07T14:36:07.594Z,23.70
2018-05-07T14:38:35.905Z,23.90
2018-05-07T14:41:03.423Z,23.90
2018-05-07T14:43:31.718Z,24.10
2018-05-07T14:45:59.239Z,24.00
2018-05-07T14:48:26.773Z,24.00
2018-05-07T14:50:54.279Z,24.00
2018-05-07T14:53:22.581Z,23.60
2018-05-07T14:55:50.182Z,23.60
2018-05-07T14:58:18.381Z,23.20
2018-05-07T15:00:45.901Z,23.20
2018-05-07T15:03:13.409Z,23.20
2018-05-07T15:05:41.720Z,23.30
2018-05-07T15:08:09.229Z,23.30
2018-05-07T15:10:37.547Z,22.80
2018-05-07T15:13:05.065Z,22.80
2018-05-07T15:15:34.649Z,22.80
2018-05-07T15:18:03.458Z,22.80
2018-05-07T15:20:32.771Z,22.90
2018-05-07T15:23:03.553Z,22.70
2018-05-07T15:25:33.293Z,22.70
2018-05-07T15:28:02.256Z,22.60
2018-05-07T15:30:31.453Z,22.60
2018-05-07T15:33:00.400Z,22.70
2018-05-07T15:35:30.561Z,22.70
2018-05-07T15:37:59.654Z,22.70
2018-05-07T15:40:28.553Z,22.80
2018-05-07T15:42:57.237Z,22.70
2018-05-07T15:45:24.739Z,22.90
2018-05-07T15:47:54.220Z,23.00
2018-05-07T15:50:23.878Z,23.00
2018-05-07T15:52:53.709Z,22.90
2018-05-07T15:55:21.257Z,22.90
2018-05-07T15:57:49.795Z,23.00
2018-05-07T16:00:17.424Z,22.90
2018-05-07T16:02:45.122Z,22.80
2018-05-07T16:05:14.644Z,22.50
2018-05-07T16:07:43.757Z,22.50
2018-05-07T16:10:12.224Z,22.40
2018-05-07T16:12:39.910Z,22.40
2018-05-07T16:15:07.460Z,22.40
2018-05-07T16:17:36.855Z,22.40
2018-05-07T16:20:04.799Z,22.40
2018-05-07T16:22:32.386Z,22.30
2018-05-07T16:25:00.667Z,22.10
2018-05-07T16:27:28.986Z,22.20
2018-05-07T16:29:56.498Z,22.20
2018-05-07T16:32:24.779Z,22.20
2018-05-07T16:34:53.069Z,22.10
2018-05-07T16:37:20.610Z,22.10
2018-05-07T16:39:49.139Z,22.20
2018-05-07T16:42:16.649Z,22.20
2018-05-07T16:44:44.963Z,22.10
2018-05-07T16:47:12.779Z,22.10
2018-05-07T16:49:41.117Z,22.10
2018-05-07T16:52:08.643Z,22.00
2018-05-07T16:54:36.178Z,22.10
2018-05-07T16:57:05.177Z,22.10
2018-05-07T16:59:33.486Z,22.10
2018-05-07T17:02:01.411Z,22.10
2018-05-07T17:04:28.979Z,22.00
2018-05-07T17:06:57.258Z,21.90
2018-05-07T17:09:25.549Z,21.70
2018-05-07T17:11:54.013Z,21.60
2018-05-07T17:14:21.546Z,21.60
2018-05-07T17:16:49.479Z,21.50
2018-05-07T17:19:17.025Z,21.40
2018-05-07T17:21:44.598Z,21.10
2018-05-07T17:24:12.472Z,21.00
2018-05-07T17:26:40.006Z,20.80
2018-05-07T17:29:07.518Z,20.80
2018-05-07T17:31:35.024Z,20.70
2018-05-07T17:34:02.641Z,20.80
2018-05-07T17:36:30.840Z,20.70
2018-05-07T17:38:59.142Z,20.70
2018-05-07T17:41:26.732Z,20.70
2018-05-07T17:43:54.960Z,20.70
2018-05-07T17:46:35.156Z,20.60
2018-05-07T17:49:02.671Z,20.60
2018-05-07T17:51:30.953Z,20.60
2018-05-07T17:53:59.253Z,20.40
2018-05-07T17:56:26.766Z,20.40
2018-05-07T17:58:54.298Z,20.30
2018-05-07T18:01:21.822Z,20.20
2018-05-07T18:03:49.343Z,20.10
2018-05-07T18:06:17.628Z,19.90
2018-05-07T18:08:45.908Z,19.90
2018-05-07T18:11:14.211Z,19.70
2018-05-07T18:13:41.713Z,19.70
2018-05-07T18:16:09.257Z,19.70
2018-05-07T18:18:36.777Z,19.60
2018-05-07T18:21:05.063Z,19.60
2018-05-07T18:23:32.564Z,19.60
2018-05-07T18:26:01.032Z,19.60
2018-05-07T18:28:28.428Z,19.60
2018-05-07T18:30:56.698Z,19.40
2018-05-07T18:33:24.253Z,19.40
2018-05-07T18:35:51.781Z,19.40
2018-05-07T18:38:19.326Z,19.30
2018-05-07T18:40:46.843Z,19.20
2018-05-07T18:43:15.161Z,19.20
2018-05-07T18:45:42.683Z,19.20
2018-05-07T18:48:10.967Z,19.20
2018-05-07T18:50:39.274Z,19.10
2018-05-07T18:53:06.789Z,19.10
2018-05-07T18:55:35.143Z,18.90
2018-05-07T18:58:02.677Z,18.90
2018-05-07T19:00:30.240Z,18.80
2018-05-07T19:02:57.769Z,18.70
2018-05-07T19:05:25.316Z,18.60
2018-05-07T19:07:53.403Z,18.50
2018-05-07T19:10:20.936Z,18.40
2018-05-07T19:12:49.233Z,18.20
2018-05-07T19:15:16.749Z,18.20
2018-05-07T19:17:44.281Z,18.20
2018-05-07T19:20:11.793Z,18.10
2018-05-07T19:22:40.099Z,18.00
2018-05-07T19:25:07.619Z,18.00
2018-05-07T19:27:35.162Z,18.00
2018-05-07T19:30:02.677Z,18.00
2018-05-07T19:32:30.226Z,17.90
2018-05-07T19:34:57.757Z,17.80
2018-05-07T19:37:25.280Z,17.60
2018-05-07T19:39:52.819Z,17.40
2018-05-07T19:42:20.350Z,17.30
2018-05-07T19:44:47.874Z,17.10
2018-05-07T19:47:15.408Z,17.00
2018-05-07T19:49:42.952Z,17.00
2018-05-07T19:52:10.472Z,16.90
2018-05-07T19:54:38.786Z,16.60
2018-05-07T19:57:06.292Z,16.50
2018-05-07T19:59:33.797Z,16.50
2018-05-07T20:02:01.329Z,16.40
2018-05-07T20:04:29.661Z,16.30
2018-05-07T20:06:57.192Z,16.30
2018-05-07T20:09:24.700Z,16.30
2018-05-07T20:11:52.246Z,16.30
2018-05-07T20:14:19.763Z,16.10
2018-05-07T20:16:47.297Z,16.00
2018-05-07T20:19:15.582Z,15.90
2018-05-07T20:21:43.852Z,15.80
2018-05-07T20:24:11.406Z,15.70
2018-05-07T20:26:39.682Z,15.60
2018-05-07T20:29:08.049Z,15.60
2018-05-07T20:31:35.509Z,15.60
2018-05-07T20:34:03.037Z,15.60
2018-05-07T20:36:30.554Z,15.60
2018-05-07T20:38:58.101Z,15.50
2018-05-07T20:41:26.386Z,15.40
2018-05-07T20:43:53.917Z,15.40
2018-05-07T20:46:22.235Z,15.30
2018-05-07T20:48:49.751Z,15.30
2018-05-07T20:51:17.284Z,15.30
2018-05-07T20:53:44.802Z,15.40
2018-05-07T20:56:12.343Z,15.30
2018-05-07T20:58:40.638Z,15.10
2018-05-07T21:01:08.178Z,15.10
2018-05-07T21:03:36.457Z,14.90
2018-05-07T21:06:04.757Z,14.80
2018-05-07T21:08:32.287Z,14.70
2018-05-07T21:11:00.579Z,14.50
2018-05-07T21:13:28.102Z,14.50
2018-05-07T21:15:55.626Z,14.40
2018-05-07T21:18:23.163Z,14.40
2018-05-07T21:20:50.667Z,14.40
2018-05-07T21:23:18.199Z,14.40
2018-05-07T21:25:45.709Z,14.30
2018-05-07T21:28:14.006Z,14.30
2018-05-07T21:30:41.551Z,14.20
2018-05-07T21:33:09.856Z,14.20
2018-05-07T21:35:37.425Z,14.20
2018-05-07T21:38:05.691Z,14.20
2018-05-07T21:40:33.218Z,14.20
2018-05-07T21:43:01.522Z,14.10
2018-05-07T21:45:29.041Z,14.10
2018-05-07T21:47:56.560Z,14.00
2018-05-07T21:50:24.084Z,13.90
2018-05-07T21:52:52.389Z,13.70
2018-05-07T21:55:19.909Z,13.70
2018-05-07T21:57:48.184Z,13.50
2018-05-07T22:00:16.490Z,13.50
2018-05-07T22:02:44.022Z,13.50
2018-05-07T22:05:11.566Z,13.40
2018-05-07T22:07:39.115Z,13.40
2018-05-07T22:10:06.630Z,13.30
2018-05-07T22:12:34.156Z,13.30
2018-05-07T22:15:02.548Z,13.10
2018-05-07T22:17:30.007Z,13.10
2018-05-07T22:19:58.280Z,13.00
2018-05-07T22:22:26.582Z,12.80
2018-05-07T22:24:54.099Z,12.80
2018-05-07T22:27:22.394Z,12.50
2018-05-07T22:29:49.960Z,12.50
2018-05-07T22:32:17.476Z,12.40
2018-05-07T22:34:45.018Z,12.40
2018-05-07T22:37:12.541Z,12.40
2018-05-07T22:39:40.085Z,12.40
2018-05-07T22:42:08.359Z,12.60
2018-05-07T22:44:36.648Z,12.60
2018-05-07T22:47:04.183Z,12.60
2018-05-07T22:49:32.484Z,12.50
2018-05-07T22:52:00.034Z,12.50
2018-05-07T22:54:28.303Z,12.50
2018-05-07T22:56:56.591Z,12.40
2018-05-07T22:59:24.115Z,12.40
2018-05-07T23:01:51.656Z,12.40
2018-05-07T23:04:19.180Z,12.40
2018-05-07T23:06:46.718Z,12.40
2018-05-07T23:09:14.251Z,12.40
2018-05-07T23:11:41.788Z,12.30
2018-05-07T23:14:09.296Z,12.30
2018-05-07T23:16:37.589Z,12.10
2018-05-07T23:19:05.147Z,12.00
2018-05-07T23:21:32.670Z,12.00
2018-05-07T23:24:00.220Z,12.00
2018-05-07T23:26:27.742Z,12.00
2018-05-07T23:28:55.294Z,11.90
2018-05-07T23:31:22.815Z,11.90
2018-05-07T23:33:50.369Z,11.80
2018-05-07T23:36:18.659Z,11.60
2018-05-07T23:38:46.946Z,11.50
2018-05-07T23:41:14.498Z,11.50
2018-05-07T23:43:42.024Z,11.40
2018-05-07T23:46:09.569Z,11.30
2018-05-07T23:48:37.082Z,11.20
2018-05-07T23:51:05.389Z,11.10
2018-05-07T23:53:32.904Z,11.10
2018-05-07T23:56:01.215Z,11.00
2018-05-07T23:58:28.737Z,11.00
